Time,TemperatureF,DewpointF,PressureIn,WindDirection,WindDirectionDegrees,WindSpeedMPH,WindSpeedGustMPH,Humidity,HourlyPrecipIn,Conditions,Clouds,dailyrainin,SoftwareType,DateUTC
2014-01-23 00:08:00,19.4,17.0,30.39,ESE,112,0.0,-999.0,90,-99.99,,,0.00,Acu-Link.com,2014-01-23 08:08:00,
2014-01-23 00:23:00,19.4,18.9,30.40,East,90,0.0,-999.0,98,-99.99,,,0.00,Acu-Link.com,2014-01-23 08:23:00,
2014-01-23 00:38:00,21.2,20.7,30.40,ESE,112,0.0,-999.0,98,-99.99,,,0.00,Acu-Link.com,2014-01-23 08:38:00,
2014-01-23 00:53:00,21.2,20.7,30.40,SSE,157,0.0,-999.0,98,-99.99,,,0.00,Acu-Link.com,2014-01-23 08:53:00,
2014-01-23 01:08:00,21.2,20.7,30.39,SW,225,0.0,-999.0,98,-99.99,,,0.00,Acu-Link.com,2014-01-23 09:08:00,
2014-01-23 01:23:00,21.2,20.7,30.39,South,180,0.0,-999.0,98,-99.99,,,0.00,Acu-Link.com,2014-01-23 09:23:00,
2014-01-23 01:38:00,23.0,22.5,30.39,West,270,0.0,-999.0,98,-99.99,,,0.00,Acu-Link.com,2014-01-23 09:38:00,
2014-01-23 01:53:00,23.0,22.5,30.40,SW,225,0.0,-999.0,98,-99.99,,,0.00,Acu-Link.com,2014-01-23 09:53:00,
2014-01-23 02:08:00,23.0,22.5,30.40,West,270,0.0,-999.0,98,-99.99,,,0.00,Acu-Link.com,2014-01-23 10:08:00,
2014-01-23 02:23:00,23.0,22.5,30.41,South,180,0.0,-999.0,98,-99.99,,,0.00,Acu-Link.com,2014-01-23 10:23:00,
2014-01-23 02:38:00,23.0,22.5,30.41,SSW,202,0.0,-999.0,98,-99.99,,,0.00,Acu-Link.com,2014-01-23 10:38:00,
2014-01-23 02:53:00,23.0,22.5,30.40,SW,225,0.0,-999.0,98,-99.99,,,0.00,Acu-Link.com,2014-01-23 10:53:00,
2014-01-23 03:08:00,23.0,22.5,30.40,West,270,0.0,-999.0,98,-99.99,,,0.00,Acu-Link.com,2014-01-23 11:08:00,
2014-01-23 03:23:00,23.0,22.5,30.41,WSW,247,0.0,-999.0,98,-99.99,,,0.00,Acu-Link.com,2014-01-23 11:23:00,
2014-01-23 03:38:00,24.8,24.3,30.41,South,180,0.0,-999.0,98,-99.99,,,0.00,Acu-Link.com,2014-01-23 11:38:00,
2014-01-23 03:53:00,24.8,24.3,30.41,SE,135,0.0,-999.0,98,-99.99,,,0.00,Acu-Link.com,2014-01-23 11:53:00,
2014-01-23 04:09:00,24.8,24.3,30.41,ESE,112,0.0,-999.0,98,-99.99,,,0.00,Acu-Link.com,2014-01-23 12:09:00,
2014-01-23 04:24:00,24.8,24.3,30.42,West,270,0.0,-999.0,98,-99.99,,,0.00,Acu-Link.com,2014-01-23 12:24:00,
2014-01-23 04:39:00,24.8,24.3,30.42,West,270,0.0,-999.0,98,-99.99,,,0.00,Acu-Link.com,2014-01-23 12:39:00,
2014-01-23 04:54:00,26.6,26.1,30.42,West,270,0.0,-999.0,98,-99.99,,,0.00,Acu-Link.com,2014-01-23 12:54:00,
2014-01-23 05:09:00,26.6,26.1,30.42,West,270,0.0,-999.0,98,-99.99,,,0.00,Acu-Link.com,2014-01-23 13:09:00,
2014-01-23 05:24:00,26.6,26.1,30.43,WSW,247,0.0,-999.0,98,-99.99,,,0.00,Acu-Link.com,2014-01-23 13:24:00,
2014-01-23 05:39:00,26.6,26.1,30.44,West,270,0.0,-999.0,98,-99.99,,,0.00,Acu-Link.com,2014-01-23 13:39:00,
2014-01-23 05:54:00,26.6,26.1,30.44,ENE,67,0.0,-999.0,98,-99.99,,,0.00,Acu-Link.com,2014-01-23 13:54:00,
2014-01-23 06:09:00,26.6,26.1,30.43,ESE,112,0.0,-999.0,98,-99.99,,,0.00,Acu-Link.com,2014-01-23 14:09:00,
2014-01-23 06:24:00,26.6,26.1,30.43,NE,45,0.0,-999.0,98,-99.99,,,0.00,Acu-Link.com,2014-01-23 14:24:00,
2014-01-23 06:39:00,26.6,26.1,30.43,ESE,112,0.0,-999.0,98,-99.99,,,0.00,Acu-Link.com,2014-01-23 14:39:00,
2014-01-23 06:54:00,26.6,26.1,30.43,West,270,0.0,-999.0,98,-99.99,,,0.00,Acu-Link.com,2014-01-23 14:54:00,
2014-01-23 07:09:00,26.6,26.1,30.43,West,270,0.0,-999.0,98,-99.99,,,0.00,Acu-Link.com,2014-01-23 15:09:00,
2014-01-23 07:24:00,26.6,26.1,30.43,SSW,202,0.0,-999.0,98,-99.99,,,0.00,Acu-Link.com,2014-01-23 15:24:00,
2014-01-23 07:39:00,26.6,26.1,30.43,ESE,112,0.0,-999.0,98,-99.99,,,0.00,Acu-Link.com,2014-01-23 15:39:00,
2014-01-23 07:54:00,26.6,26.1,30.43,ESE,112,0.0,-999.0,98,-99.99,,,0.00,Acu-Link.com,2014-01-23 15:54:00,
2014-01-23 08:09:00,26.6,26.1,30.42,SSW,202,0.0,-999.0,98,-99.99,,,0.00,Acu-Link.com,2014-01-23 16:09:00,
2014-01-23 08:25:00,26.6,26.1,30.43,ESE,112,0.0,-999.0,98,-99.99,,,0.00,Acu-Link.com,2014-01-23 16:25:00,
2014-01-23 08:40:00,26.6,26.1,30.43,ESE,112,0.0,-999.0,98,-99.99,,,0.00,Acu-Link.com,2014-01-23 16:40:00,
2014-01-23 08:55:00,26.6,26.1,30.43,WSW,247,0.0,-999.0,98,-99.99,,,0.00,Acu-Link.com,2014-01-23 16:55:00,
2014-01-23 09:10:00,26.6,26.1,30.43,South,180,0.0,-999.0,98,-99.99,,,0.00,Acu-Link.com,2014-01-23 17:10:00,
2014-01-23 09:25:00,28.4,27.9,30.44,SSW,202,0.0,-999.0,98,-99.99,,,0.00,Acu-Link.com,2014-01-23 17:25:00,
2014-01-23 09:40:00,28.4,27.9,30.43,SE,135,1.1,-999.0,98,-99.99,,,0.00,Acu-Link.com,2014-01-23 17:40:00,
2014-01-23 09:55:00,28.4,27.9,30.43,West,270,0.0,-999.0,98,-99.99,,,0.00,Acu-Link.com,2014-01-23 17:55:00,
2014-01-23 10:10:00,28.4,27.9,30.44,East,90,0.0,-999.0,98,-99.99,,,0.00,Acu-Link.com,2014-01-23 18:10:00,
2014-01-23 10:25:00,30.2,29.7,30.44,West,270,0.0,-999.0,98,-99.99,,,0.00,Acu-Link.com,2014-01-23 18:25:00,
2014-01-23 10:40:00,30.2,29.7,30.44,SW,225,1.6,-999.0,98,-99.99,,,0.00,Acu-Link.com,2014-01-23 18:40:00,
2014-01-23 10:55:00,32.0,31.5,30.45,SW,225,0.0,-999.0,98,-99.99,,,0.00,Acu-Link.com,2014-01-23 18:55:00,
2014-01-23 11:10:00,32.0,29.7,30.44,ESE,112,0.0,-999.0,91,-99.99,,,0.00,Acu-Link.com,2014-01-23 19:10:00,
2014-01-23 11:25:00,32.0,29.1,30.44,SSW,202,1.6,-999.0,89,-99.99,,,0.00,Acu-Link.com,2014-01-23 19:25:00,
2014-01-23 11:40:00,32.0,28.9,30.44,WSW,247,1.1,-999.0,88,-99.99,,,0.00,Acu-Link.com,2014-01-23 19:40:00,
2014-01-23 11:55:00,33.8,30.1,30.44,SSW,202,1.6,-999.0,86,-99.99,,,0.00,Acu-Link.com,2014-01-23 19:55:00,
2014-01-23 12:10:00,33.8,30.1,30.43,ESE,112,1.6,-999.0,86,-99.99,,,0.00,Acu-Link.com,2014-01-23 20:10:00,
2014-01-23 12:25:00,33.8,29.8,30.43,ENE,67,0.0,-999.0,85,-99.99,,,0.00,Acu-Link.com,2014-01-23 20:25:00,
2014-01-23 12:40:00,32.0,29.4,30.42,NNE,22,1.6,-999.0,90,-99.99,,,0.00,Acu-Link.com,2014-01-23 20:40:00,
2014-01-23 12:55:00,32.0,30.5,30.42,South,180,0.0,-999.0,94,-99.99,,,0.00,Acu-Link.com,2014-01-23 20:55:00,
2014-01-23 13:10:00,33.8,30.6,30.41,NNE,22,1.6,-999.0,88,-99.99,,,0.01,Acu-Link.com,2014-01-23 21:10:00,
2014-01-23 13:25:00,32.0,29.7,30.40,NE,45,1.6,-999.0,91,-99.99,,,0.01,Acu-Link.com,2014-01-23 21:25:00,
2014-01-23 13:40:00,33.8,31.5,30.40,West,270,1.6,-999.0,91,-99.99,,,0.01,Acu-Link.com,2014-01-23 21:40:00,
2014-01-23 13:56:00,33.8,31.2,30.39,NNE,22,0.0,-999.0,90,-99.99,,,0.02,Acu-Link.com,2014-01-23 21:56:00,
2014-01-23 14:11:00,33.8,30.9,30.39,WNW,292,2.0,-999.0,89,-99.99,,,0.02,Acu-Link.com,2014-01-23 22:11:00,
2014-01-23 14:26:00,35.6,32.4,30.39,West,270,1.6,-999.0,88,-99.99,,,0.02,Acu-Link.com,2014-01-23 22:26:00,
2014-01-23 14:41:00,33.8,30.9,30.40,NNW,337,1.6,-999.0,89,-99.99,,,0.04,Acu-Link.com,2014-01-23 22:41:00,
2014-01-23 14:56:00,35.6,32.1,30.40,WNW,292,2.7,-999.0,87,-99.99,,,0.04,Acu-Link.com,2014-01-23 22:56:00,
2014-01-23 15:11:00,35.6,32.4,30.40,NNW,337,0.0,-999.0,88,-99.99,,,0.04,Acu-Link.com,2014-01-23 23:11:00,
2014-01-23 15:26:00,33.8,30.6,30.40,WNW,292,1.1,-999.0,88,-99.99,,,0.04,Acu-Link.com,2014-01-23 23:26:00,
2014-01-23 15:41:00,33.8,31.2,30.40,West,270,1.6,-999.0,90,-99.99,,,0.04,Acu-Link.com,2014-01-23 23:41:00,
2014-01-23 15:56:00,32.0,31.5,30.40,NNW,337,2.0,-999.0,98,-99.99,,,0.04,Acu-Link.com,2014-01-23 23:56:00,
2014-01-23 16:11:00,32.0,31.5,30.40,West,270,0.0,-999.0,98,-99.99,,,0.04,Acu-Link.com,2014-01-24 00:11:00,
2014-01-23 16:26:00,32.0,31.5,30.41,SSW,202,0.0,-999.0,98,-99.99,,,0.04,Acu-Link.com,2014-01-24 00:26:00,
2014-01-23 16:41:00,32.0,31.5,30.41,NW,315,1.6,-999.0,98,-99.99,,,0.04,Acu-Link.com,2014-01-24 00:41:00,
2014-01-23 16:56:00,32.0,31.5,30.42,WSW,247,0.0,-999.0,98,-99.99,,,0.04,Acu-Link.com,2014-01-24 00:56:00,
2014-01-23 17:11:00,32.0,31.5,30.42,WSW,247,0.0,-999.0,98,-99.99,,,0.04,Acu-Link.com,2014-01-24 01:11:00,
2014-01-23 17:26:00,32.0,31.5,30.42,South,180,1.6,-999.0,98,-99.99,,,0.04,Acu-Link.com,2014-01-24 01:26:00,
2014-01-23 17:41:00,32.0,31.5,30.41,SW,225,1.6,-999.0,98,-99.99,,,0.04,Acu-Link.com,2014-01-24 01:41:00,
2014-01-23 17:57:00,32.0,31.5,30.41,NE,45,0.0,-999.0,98,-99.99,,,0.04,Acu-Link.com,2014-01-24 01:57:00,
2014-01-23 18:12:00,30.2,29.7,30.41,East,90,0.0,-999.0,98,-99.99,,,0.04,Acu-Link.com,2014-01-24 02:12:00,
2014-01-23 18:27:00,30.2,29.7,30.40,ESE,112,0.0,-999.0,98,-99.99,,,0.04,Acu-Link.com,2014-01-24 02:27:00,
2014-01-23 18:42:00,30.2,29.7,30.41,SSW,202,0.0,-999.0,98,-99.99,,,0.05,Acu-Link.com,2014-01-24 02:42:00,
2014-01-23 18:57:00,30.2,29.7,30.41,SSE,157,0.0,-999.0,98,-99.99,,,0.05,Acu-Link.com,2014-01-24 02:57:00,
2014-01-23 19:12:00,30.2,29.7,30.41,SE,135,0.0,-999.0,98,-99.99,,,0.05,Acu-Link.com,2014-01-24 03:12:00,
2014-01-23 19:27:00,30.2,29.7,30.42,ESE,112,0.0,-999.0,98,-99.99,,,0.05,Acu-Link.com,2014-01-24 03:27:00,
2014-01-23 19:42:00,30.2,29.7,30.42,ENE,67,2.0,-999.0,98,-99.99,,,0.05,Acu-Link.com,2014-01-24 03:42:00,
2014-01-23 19:57:00,30.2,29.7,30.43,ESE,112,0.0,-999.0,98,-99.99,,,0.05,Acu-Link.com,2014-01-24 03:57:00,
2014-01-23 20:12:00,30.2,29.7,30.43,SE,135,0.0,-999.0,98,-99.99,,,0.05,Acu-Link.com,2014-01-24 04:12:00,
2014-01-23 20:27:00,30.2,29.7,30.43,East,90,1.1,-999.0,98,-99.99,,,0.05,Acu-Link.com,2014-01-24 04:27:00,
2014-01-23 20:42:00,30.2,29.7,30.43,ESE,112,1.6,-999.0,98,-99.99,,,0.05,Acu-Link.com,2014-01-24 04:42:00,
2014-01-23 20:57:00,30.2,29.7,30.43,East,90,1.6,-999.0,98,-99.99,,,0.05,Acu-Link.com,2014-01-24 04:57:00,
2014-01-23 21:12:00,30.2,29.7,30.43,SSE,157,1.6,-999.0,98,-99.99,,,0.05,Acu-Link.com,2014-01-24 05:12:00,
2014-01-23 21:27:00,30.2,29.7,30.43,ESE,112,1.1,-999.0,98,-99.99,,,0.05,Acu-Link.com,2014-01-24 05:27:00,
2014-01-23 21:42:00,30.2,29.7,30.43,SSW,202,0.0,-999.0,98,-99.99,,,0.05,Acu-Link.com,2014-01-24 05:42:00,
2014-01-23 21:57:00,30.2,29.7,30.44,SSW,202,0.0,-999.0,98,-99.99,,,0.05,Acu-Link.com,2014-01-24 05:57:00,
2014-01-23 22:12:00,30.2,29.7,30.43,SSW,202,0.0,-999.0,98,-99.99,,,0.05,Acu-Link.com,2014-01-24 06:12:00,
2014-01-23 22:27:00,30.2,29.7,30.43,ESE,112,0.0,-999.0,98,-99.99,,,0.05,Acu-Link.com,2014-01-24 06:27:00,
2014-01-23 22:42:00,30.2,29.7,30.44,South,180,0.0,-999.0,98,-99.99,,,0.05,Acu-Link.com,2014-01-24 06:42:00,
2014-01-23 22:57:00,28.4,27.9,30.43,NW,315,0.0,-999.0,98,-99.99,,,0.05,Acu-Link.com,2014-01-24 06:57:00,
2014-01-23 23:12:00,28.4,27.9,30.43,SE,135,0.0,-999.0,98,-99.99,,,0.05,Acu-Link.com,2014-01-24 07:12:00,
2014-01-23 23:28:00,28.4,27.9,30.43,SE,135,0.0,-999.0,98,-99.99,,,0.05,Acu-Link.com,2014-01-24 07:28:00,
2014-01-23 23:43:00,28.4,27.9,30.44,SE,135,0.0,-999.0,98,-99.99,,,0.05,Acu-Link.com,2014-01-24 07:43:00,
2014-01-23 23:58:00,28.4,27.9,30.44,South,180,0.0,-999.0,98,-99.99,,,0.05,Acu-Link.com,2014-01-24 07:58:00,